ADDS TAF Board (Experimental) INFO Settings

IDs: Format: Expanded Condensed

KMDW - Chicago/Midway Intl, IL, US

Issued at 0850 UTC 27 Apr 2015
Updated at: 0900 UTC 27 Apr 2015
Time0853Z 27/09Z 27/10Z 27/11Z 27/12Z 27/13Z 27/14Z 27/15Z 27/16Z 27/17Z 27/18Z 27/19Z 27/20Z 27/21Z
Type OBS PRVL PRVL PRVL PRVL PRVL PRVL PRVL PRVL PRVL PRVL PRVL PRVL PRVL
VIS 10 >6 >6 >6 >6 >6 >6 >6 >6 >6 >6 >6 >6 >6
CIG -- -- -- -- -- -- -- -- -- -- -- -- -- --
Cover CLR SKC SKC SKC SKC SKC SKC SCT SCT SCT SCT SCT SCT SCT
FltCat VFR VFR VFR VFR VFR VFR VFR VFR VFR VFR VFR VFR VFR VFR
WX -- -- -- -- -- -- -- -- -- -- -- -- -- --
WDir 20 360 360 360 360 360 360 20 20 20 20 20 20 20
WSpd 10 8 8 8 8 8 8 13 13 13 13 13 13 13
WGst -- -- -- -- -- -- -- 18 18 18 18 18 18 18
R04/22
XWnd 4 5 5 5 5 5 5 5 5 5 5 5 5 5
XGst -- -- -- -- -- -- -- 7 7 7 7 7 7 7
HWnd 9 6 6 6 6 6 6 12 12 12 12 12 12 12
HGst -- -- -- -- -- -- -- 17 17 17 17 17 17 17
R13/31
XWnd 9 6 6 6 6 6 6 12 12 12 12 12 12 12
XGst -- -- -- -- -- -- -- 16 16 16 16 16 16 16
HWnd -4 -6 -6 -6 -6 -6 -6 -5 -5 -5 -5 -5 -5 -5
HGst -- -- -- -- -- -- -- -7 -7 -7 -7 -7 -7 -7

NOTE: TEMPO conditions in [brackets]. Keep in mind TEMPO conditions might be better (lower impact) than prevailing conditions.

Raw TAF
KMDW 270850Z 2709/2806 36008KT P6SM SKC
  FM271500 02013G18KT P6SM SCT030
  FM272200 03013KT P6SM SCT035
  FM280200 02006KT P6SM FEW250


Raw METAR
KMDW 270853Z 02010KT 10SM CLR 06/00 A3005 RMK AO2 SLP178 T00610000 50000
KMDW 270753Z 36011KT 10SM CLR 07/00 A3006 RMK AO2 SLP180 T00670000
KMDW 270653Z 36013KT 10SM CLR 07/M01 A3005 RMK AO2 SLP178 T00721006
KMDW 270553Z 36012KT 10SM CLR 08/M01 A3005 RMK AO2 SLP178 T00781006 10100 20072 401390039 51006

METAR Board
Radar Display
Forecast Discussion

TAF Board Legend

Potential Impact
Threat None Slight Moderate High
Visibility (sm) ≥5.1 5.1>X≥3 3>X≥1 <1
Ceiling (100 ft) ≥30.1 30.1>X≥10 10>X≥5 <5
Wind Speed (kt) <10 10≤X<20 20≤X<30 ≥30
Wind Gust (kt) <15 15≤X<25 25≤X<35 ≥35
Weather No Wx Reported VCTS,-TS,-FZRA,SN TS,FZRA +TS,+FZRA,+SN